createdAt,value
2018-06-14T00:02:06.101Z,14.20
2018-06-14T00:04:35.176Z,14.26
2018-06-14T00:07:04.177Z,14.31
2018-06-14T00:09:33.170Z,14.33
2018-06-14T00:12:01.887Z,14.39
2018-06-14T00:14:30.563Z,14.33
2018-06-14T00:16:59.498Z,14.24
2018-06-14T00:19:28.303Z,14.25
2018-06-14T00:21:57.003Z,14.32
2018-06-14T00:24:25.854Z,14.36
2018-06-14T00:26:54.831Z,14.32
2018-06-14T00:29:23.566Z,14.19
2018-06-14T00:31:52.513Z,13.97
2018-06-14T00:34:21.120Z,14.07
2018-06-14T00:36:49.959Z,14.22
2018-06-14T00:39:18.750Z,14.07
2018-06-14T00:41:47.692Z,14.03
2018-06-14T00:44:16.706Z,14.09
2018-06-14T00:46:45.826Z,14.24
2018-06-14T00:49:20.591Z,14.37
2018-06-14T00:51:49.622Z,14.50
2018-06-14T00:54:18.747Z,14.57
2018-06-14T00:56:58.518Z,14.64
2018-06-14T00:59:27.539Z,14.64
2018-06-14T01:01:56.482Z,14.70
2018-06-14T01:04:25.383Z,14.69
2018-06-14T01:06:54.428Z,14.59
2018-06-14T01:09:23.386Z,14.57
2018-06-14T01:11:52.381Z,14.56
2018-06-14T01:14:21.301Z,14.55
2018-06-14T01:16:56.727Z,14.61
2018-06-14T01:19:25.714Z,14.67
2018-06-14T01:21:54.683Z,14.49
2018-06-14T01:24:23.571Z,14.46
2018-06-14T01:26:55.249Z,14.54
2018-06-14T01:29:24.477Z,14.63
2018-06-14T01:31:53.471Z,14.71
2018-06-14T01:34:22.439Z,14.63
2018-06-14T01:36:51.399Z,14.55
2018-06-14T01:39:20.409Z,14.55
2018-06-14T01:41:49.440Z,14.58
2018-06-14T01:44:18.377Z,14.56
2018-06-14T01:46:47.347Z,14.64
2018-06-14T01:49:16.339Z,14.42
2018-06-14T01:51:45.304Z,14.49
2018-06-14T01:54:14.183Z,14.57
2018-06-14T01:56:43.171Z,14.48
2018-06-14T01:59:12.248Z,14.41
2018-06-14T02:01:41.248Z,14.38
2018-06-14T02:04:09.919Z,14.41
2018-06-14T02:06:38.897Z,14.36
2018-06-14T02:09:08.844Z,14.37
2018-06-14T02:11:37.973Z,14.47
2018-06-14T02:14:07.120Z,14.40
2018-06-14T02:16:36.183Z,14.42
2018-06-14T02:19:05.195Z,14.32
2018-06-14T02:21:34.171Z,14.35
2018-06-14T02:24:03.198Z,14.22
2018-06-14T02:26:32.183Z,14.22
2018-06-14T02:29:01.264Z,14.16
2018-06-14T02:31:30.327Z,14.20
2018-06-14T02:33:59.303Z,14.21
2018-06-14T02:36:28.339Z,14.15
2018-06-14T02:38:57.310Z,14.11
2018-06-14T02:41:26.269Z,14.20
2018-06-14T02:43:55.224Z,14.32
2018-06-14T02:46:23.908Z,14.27
2018-06-14T02:48:52.541Z,14.26
2018-06-14T02:51:21.324Z,14.24
2018-06-14T02:53:50.338Z,14.23
2018-06-14T02:56:19.292Z,14.19
2018-06-14T02:58:52.805Z,14.14
2018-06-14T03:01:21.545Z,13.99
2018-06-14T03:03:50.227Z,14.05
2018-06-14T03:06:18.925Z,14.12
2018-06-14T03:08:47.644Z,14.06
2018-06-14T03:11:16.272Z,14.05
2018-06-14T03:13:45.120Z,14.02
2018-06-14T03:16:14.005Z,14.01
2018-06-14T03:18:42.990Z,13.92
2018-06-14T03:21:11.948Z,13.87
2018-06-14T03:23:40.950Z,13.92
2018-06-14T03:26:10.117Z,13.81
2018-06-14T03:28:39.099Z,13.91
2018-06-14T03:31:08.057Z,13.99
2018-06-14T03:33:36.702Z,14.07
2018-06-14T03:36:05.502Z,14.09
2018-06-14T03:38:34.205Z,13.98
2018-06-14T03:41:02.821Z,13.93
2018-06-14T03:43:31.474Z,13.97
2018-06-14T03:46:00.438Z,13.95
2018-06-14T03:48:29.418Z,14.07
2018-06-14T03:50:58.437Z,13.96
2018-06-14T03:53:27.409Z,13.90
2018-06-14T03:55:56.412Z,14.00
2018-06-14T03:58:25.262Z,14.06
2018-06-14T04:00:54.219Z,14.12
2018-06-14T04:03:23.139Z,14.13
2018-06-14T04:05:52.053Z,14.02
2018-06-14T04:08:21.497Z,13.90
2018-06-14T04:10:50.463Z,13.88
2018-06-14T04:13:19.461Z,13.94
2018-06-14T04:15:48.416Z,13.89
2018-06-14T04:18:17.379Z,13.79
2018-06-14T04:20:46.339Z,13.80
2018-06-14T04:23:15.268Z,13.74
2018-06-14T04:25:44.221Z,13.71
2018-06-14T04:28:13.156Z,13.66
2018-06-14T04:30:42.077Z,13.66
2018-06-14T04:33:11.007Z,13.64
2018-06-14T04:35:39.965Z,13.47
2018-06-14T04:38:08.870Z,13.48
2018-06-14T04:40:37.923Z,13.51
2018-06-14T04:43:07.037Z,13.60
2018-06-14T04:45:35.863Z,13.69
2018-06-14T04:48:04.861Z,13.61
2018-06-14T04:50:33.836Z,13.65
2018-06-14T04:53:02.650Z,13.65
2018-06-14T04:55:31.500Z,13.64
2018-06-14T04:58:00.406Z,13.71
2018-06-14T05:00:29.181Z,13.66
2018-06-14T05:02:57.868Z,13.64
2018-06-14T05:05:26.878Z,13.73
2018-06-14T05:07:55.856Z,13.81
2018-06-14T05:10:24.869Z,13.78
2018-06-14T05:12:53.797Z,13.77
2018-06-14T05:15:22.779Z,13.80
2018-06-14T05:17:51.721Z,13.86
2018-06-14T05:20:20.626Z,13.85
2018-06-14T05:22:49.602Z,13.83
2018-06-14T05:25:18.668Z,13.66
2018-06-14T05:27:47.596Z,13.68
2018-06-14T05:30:16.755Z,13.57
2018-06-14T05:32:45.384Z,13.65
2018-06-14T05:35:14.217Z,13.73
2018-06-14T05:37:43.184Z,13.75
2018-06-14T05:40:12.125Z,13.65
2018-06-14T05:42:41.183Z,13.70
2018-06-14T05:45:10.129Z,13.76
2018-06-14T05:47:39.235Z,13.89
2018-06-14T05:50:11.909Z,13.93
2018-06-14T05:52:41.001Z,14.04
2018-06-14T05:55:09.951Z,14.10
2018-06-14T05:57:38.939Z,14.19
2018-06-14T06:00:11.743Z,14.31
2018-06-14T06:02:40.549Z,14.29
2018-06-14T06:05:09.219Z,14.35
2018-06-14T06:07:38.176Z,14.38
2018-06-14T06:10:07.481Z,14.39
2018-06-14T06:12:36.605Z,14.42
2018-06-14T06:15:06.071Z,14.47
2018-06-14T06:17:35.053Z,14.42
2018-06-14T06:20:03.851Z,14.40
2018-06-14T06:22:32.650Z,14.44
2018-06-14T06:25:02.446Z,14.44
2018-06-14T06:27:31.153Z,14.49
2018-06-14T06:30:00.109Z,14.52
2018-06-14T06:32:29.196Z,14.34
2018-06-14T06:34:58.198Z,14.45
2018-06-14T06:37:26.949Z,14.40
2018-06-14T06:39:56.480Z,14.43
2018-06-14T06:42:25.129Z,14.48
2018-06-14T06:44:53.985Z,14.46
2018-06-14T06:47:22.969Z,14.32
2018-06-14T06:49:52.175Z,14.54
2018-06-14T06:52:21.172Z,14.76
2018-06-14T06:54:50.412Z,14.92
2018-06-14T06:57:19.216Z,14.94
2018-06-14T06:59:49.430Z,14.95
2018-06-14T07:02:18.342Z,14.75
2018-06-14T07:04:47.294Z,14.82
2018-06-14T07:07:16.144Z,14.75
2018-06-14T07:09:45.119Z,14.90
2018-06-14T07:12:14.070Z,15.10
2018-06-14T07:14:42.999Z,15.06
2018-06-14T07:17:12.001Z,15.19
2018-06-14T07:19:40.968Z,15.29
2018-06-14T07:22:09.883Z,15.56
2018-06-14T07:24:38.832Z,15.54
2018-06-14T07:27:07.883Z,15.65
2018-06-14T07:29:36.897Z,15.70
2018-06-14T07:32:05.943Z,15.76
2018-06-14T07:34:34.860Z,15.69
2018-06-14T07:37:03.814Z,15.77
2018-06-14T07:39:32.713Z,15.74
2018-06-14T07:42:01.487Z,15.95
2018-06-14T07:44:31.347Z,15.78
2018-06-14T07:47:00.351Z,15.73
2018-06-14T07:49:29.336Z,15.64
2018-06-14T07:51:58.251Z,15.71
2018-06-14T07:54:26.860Z,15.73
2018-06-14T07:56:55.954Z,15.79
2018-06-14T07:59:24.733Z,15.88
2018-06-14T08:01:54.266Z,15.83
2018-06-14T08:04:23.089Z,15.92
2018-06-14T08:06:51.587Z,15.90
2018-06-14T08:09:20.424Z,16.04
2018-06-14T08:11:49.217Z,16.30
2018-06-14T08:14:17.992Z,16.41
2018-06-14T08:16:46.654Z,16.47
2018-06-14T08:19:15.533Z,16.68
2018-06-14T08:21:44.326Z,16.80
2018-06-14T08:24:13.120Z,16.71
2018-06-14T08:26:41.973Z,16.70
2018-06-14T08:29:10.864Z,16.87
2018-06-14T08:31:45.166Z,17.15
2018-06-14T08:34:14.113Z,17.24
2018-06-14T08:36:43.024Z,16.82
2018-06-14T08:39:11.907Z,16.87
2018-06-14T08:41:40.827Z,16.96
2018-06-14T08:44:09.737Z,16.91
2018-06-14T08:46:41.449Z,17.01
2018-06-14T08:49:10.549Z,16.99
2018-06-14T08:51:39.689Z,17.27
2018-06-14T08:54:09.014Z,17.13
2018-06-14T08:56:38.162Z,17.18
2018-06-14T08:59:07.281Z,17.35
2018-06-14T09:01:36.557Z,17.38
2018-06-14T09:04:06.063Z,17.43
2018-06-14T09:06:35.212Z,17.38
2018-06-14T09:09:09.877Z,17.37
2018-06-14T09:11:39.487Z,17.28
2018-06-14T09:14:09.157Z,17.31
2018-06-14T09:16:38.886Z,17.45
2018-06-14T09:19:08.172Z,17.52
2018-06-14T09:21:54.222Z,17.28
2018-06-14T09:24:23.217Z,17.20
2018-06-14T09:26:52.224Z,17.34
2018-06-14T09:29:21.086Z,17.57
2018-06-14T09:31:50.678Z,17.78
2018-06-14T09:34:20.030Z,17.84
2018-06-14T09:36:49.185Z,17.85
2018-06-14T09:39:18.126Z,17.78
2018-06-14T09:41:47.004Z,17.78
2018-06-14T09:44:15.870Z,17.69
2018-06-14T09:46:44.965Z,17.62
2018-06-14T09:49:16.131Z,17.70
2018-06-14T09:51:46.506Z,17.74
2018-06-14T09:54:15.503Z,17.80
2018-06-14T09:56:44.873Z,17.55
2018-06-14T09:59:14.645Z,17.47
2018-06-14T10:01:43.592Z,17.62
2018-06-14T10:04:12.386Z,17.59
2018-06-14T10:06:41.508Z,17.68
2018-06-14T10:09:12.065Z,17.75
2018-06-14T10:11:41.569Z,17.71
2018-06-14T10:14:10.887Z,17.52
2018-06-14T10:16:39.829Z,17.45
2018-06-14T10:19:08.883Z,17.48
2018-06-14T10:21:38.222Z,17.31
2018-06-14T10:24:07.451Z,17.27
2018-06-14T10:26:36.604Z,17.27
2018-06-14T10:29:05.713Z,17.25
2018-06-14T10:31:38.227Z,17.23
2018-06-14T10:34:07.680Z,17.20
2018-06-14T10:36:37.010Z,17.21
2018-06-14T10:39:07.804Z,17.28
2018-06-14T10:41:37.158Z,17.39
2018-06-14T10:44:06.281Z,17.51
2018-06-14T10:46:35.460Z,17.58
2018-06-14T10:49:04.800Z,17.63
2018-06-14T10:51:33.453Z,17.60
2018-06-14T10:54:02.114Z,17.60
2018-06-14T10:56:30.807Z,17.66
2018-06-14T10:58:59.736Z,17.59
2018-06-14T11:01:29.405Z,17.63
2018-06-14T11:03:59.116Z,17.55
2018-06-14T11:06:28.156Z,17.59
2018-06-14T11:08:57.326Z,17.65
2018-06-14T11:11:26.397Z,17.70
2018-06-14T11:13:55.597Z,17.42
2018-06-14T11:16:24.691Z,17.46
2018-06-14T11:18:53.657Z,17.25
2018-06-14T11:21:22.690Z,17.29
2018-06-14T11:23:51.677Z,17.30
2018-06-14T11:26:20.722Z,17.26
2018-06-14T11:28:49.723Z,17.28
2018-06-14T11:31:18.759Z,17.12
2018-06-14T11:33:47.679Z,17.14
2018-06-14T11:36:16.624Z,17.04
2018-06-14T11:38:46.068Z,17.18
2018-06-14T11:41:15.252Z,17.34
2018-06-14T11:43:44.377Z,17.39
2018-06-14T11:46:13.587Z,17.49
2018-06-14T11:48:42.832Z,17.76
2018-06-14T11:51:11.837Z,17.83
2018-06-14T11:53:40.887Z,17.92
2018-06-14T11:56:09.969Z,17.97
2018-06-14T11:58:38.897Z,18.16
2018-06-14T12:01:08.585Z,18.37
2018-06-14T12:03:37.610Z,18.64
2018-06-14T12:06:06.677Z,18.67
2018-06-14T12:08:35.643Z,18.51
2018-06-14T12:11:05.094Z,18.42
2018-06-14T12:13:40.995Z,18.35
2018-06-14T12:16:09.989Z,18.39
2018-06-14T12:18:39.457Z,18.30
2018-06-14T12:21:08.375Z,18.37
2018-06-14T12:23:37.387Z,18.44
2018-06-14T12:26:06.399Z,18.39
2018-06-14T12:28:35.383Z,18.38
2018-06-14T12:31:04.089Z,18.42
2018-06-14T12:33:33.102Z,18.48
2018-06-14T12:36:02.725Z,18.43
2018-06-14T12:38:32.062Z,18.45
2018-06-14T12:41:01.149Z,18.49
2018-06-14T12:43:30.498Z,18.59
2018-06-14T12:45:59.844Z,18.57
2018-06-14T12:48:28.967Z,18.68
2018-06-14T12:50:58.168Z,18.68
2018-06-14T12:53:27.168Z,18.73
2018-06-14T12:55:57.161Z,18.53
2018-06-14T12:58:26.592Z,18.33
2018-06-14T13:00:55.757Z,18.42
2018-06-14T13:03:24.931Z,18.59
2018-06-14T13:05:54.003Z,18.71
2018-06-14T13:08:23.137Z,18.86
2018-06-14T13:10:52.183Z,18.90
2018-06-14T13:13:21.362Z,19.00
2018-06-14T13:15:50.372Z,19.01
2018-06-14T13:18:22.655Z,19.01
2018-06-14T13:20:52.260Z,19.11
2018-06-14T13:23:21.332Z,19.16
2018-06-14T13:25:50.791Z,19.17
2018-06-14T13:28:19.869Z,19.27
2018-06-14T13:30:49.048Z,19.22
2018-06-14T13:33:18.044Z,19.15
2018-06-14T13:35:47.065Z,19.11
2018-06-14T13:38:16.068Z,19.17
2018-06-14T13:40:44.946Z,19.25
2018-06-14T13:43:14.331Z,19.13
2018-06-14T13:45:43.259Z,19.14
2018-06-14T13:48:12.591Z,19.14
2018-06-14T13:50:41.573Z,19.17
2018-06-14T13:53:10.423Z,19.18
2018-06-14T13:55:39.348Z,19.25
2018-06-14T13:58:08.273Z,19.07
2018-06-14T14:00:37.175Z,19.21
2018-06-14T14:03:07.024Z,19.03
2018-06-14T14:05:35.951Z,18.91
2018-06-14T14:08:04.860Z,18.96
2018-06-14T14:10:33.772Z,18.98
2018-06-14T14:13:02.681Z,18.93
2018-06-14T14:15:31.659Z,18.81
2018-06-14T14:18:00.702Z,18.71
2018-06-14T14:20:29.824Z,18.65
2018-06-14T14:22:58.888Z,18.65
2018-06-14T14:25:27.845Z,18.59
2018-06-14T14:27:56.824Z,18.52
2018-06-14T14:30:25.806Z,18.49
2018-06-14T14:32:54.777Z,18.49
2018-06-14T14:35:23.973Z,18.61
2018-06-14T14:37:52.738Z,18.62
2018-06-14T14:40:21.632Z,18.58
2018-06-14T14:42:50.629Z,18.60
2018-06-14T14:45:19.568Z,18.64
2018-06-14T14:47:48.722Z,18.67
2018-06-14T14:50:17.842Z,18.72
2018-06-14T14:52:46.812Z,18.75
2018-06-14T14:55:15.905Z,18.67
2018-06-14T14:57:44.841Z,18.36
2018-06-14T15:00:13.900Z,18.43
2018-06-14T15:02:42.949Z,18.42
2018-06-14T15:05:11.883Z,18.60
2018-06-14T15:07:40.820Z,18.64
2018-06-14T15:10:09.768Z,18.65
2018-06-14T15:12:38.717Z,18.82
2018-06-14T15:15:07.696Z,18.74
2018-06-14T15:17:36.754Z,18.67
2018-06-14T15:20:05.747Z,18.73
2018-06-14T15:22:35.268Z,18.78
2018-06-14T15:25:04.239Z,18.84
2018-06-14T15:27:33.249Z,18.67
2018-06-14T15:30:02.605Z,18.74
2018-06-14T15:32:31.982Z,18.80
2018-06-14T15:35:01.421Z,18.74
2018-06-14T15:37:30.374Z,18.82
2018-06-14T15:39:59.325Z,18.53
2018-06-14T15:42:28.300Z,18.54
2018-06-14T15:44:57.230Z,18.59
2018-06-14T15:47:26.283Z,18.62
2018-06-14T15:49:55.355Z,18.19
2018-06-14T15:52:24.419Z,18.15
2018-06-14T15:55:04.293Z,18.28
2018-06-14T15:57:33.355Z,18.20
2018-06-14T16:00:02.299Z,18.33
2018-06-14T16:02:31.280Z,18.27
2018-06-14T16:05:00.489Z,18.22
2018-06-14T16:07:29.431Z,18.23
2018-06-14T16:09:58.426Z,18.27
2018-06-14T16:12:27.430Z,18.36
2018-06-14T16:14:56.497Z,18.44
2018-06-14T16:17:25.449Z,18.53
2018-06-14T16:19:54.380Z,18.62
2018-06-14T16:22:23.323Z,18.64
2018-06-14T16:24:52.311Z,18.74
2018-06-14T16:27:21.309Z,18.71
2018-06-14T16:29:50.289Z,18.62
2018-06-14T16:32:19.265Z,18.55
2018-06-14T16:34:48.200Z,18.39
2018-06-14T16:37:17.397Z,18.28
2018-06-14T16:39:46.582Z,18.32
2018-06-14T16:42:15.671Z,18.36
2018-06-14T16:44:45.376Z,18.45
2018-06-14T16:47:14.510Z,18.41
2018-06-14T16:49:43.681Z,18.65
2018-06-14T16:52:12.782Z,18.48
2018-06-14T16:54:41.715Z,18.44
2018-06-14T16:57:10.744Z,18.39
2018-06-14T16:59:39.937Z,18.44
2018-06-14T17:02:08.953Z,18.41
2018-06-14T17:04:37.970Z,18.33
2018-06-14T17:07:06.958Z,18.32
2018-06-14T17:09:35.911Z,18.31
2018-06-14T17:12:05.079Z,18.18
2018-06-14T17:14:34.684Z,18.05
2018-06-14T17:17:03.635Z,17.97
2018-06-14T17:19:32.669Z,17.98
2018-06-14T17:22:04.836Z,17.94
2018-06-14T17:24:33.804Z,17.88
2018-06-14T17:27:04.993Z,17.85
2018-06-14T17:29:34.511Z,17.86
2018-06-14T17:32:03.756Z,17.84
2018-06-14T17:34:32.889Z,17.83
2018-06-14T17:37:02.002Z,17.79
2018-06-14T17:39:31.276Z,17.78
2018-06-14T17:42:00.602Z,17.64
2018-06-14T17:44:29.833Z,17.63
2018-06-14T17:46:59.193Z,17.61
2018-06-14T17:49:28.399Z,17.59
2018-06-14T17:51:57.646Z,17.63
2018-06-14T17:54:26.536Z,17.56
2018-06-14T17:56:55.514Z,17.43
2018-06-14T17:59:24.505Z,17.31
2018-06-14T18:01:53.542Z,17.34
2018-06-14T18:04:22.860Z,17.36
2018-06-14T18:06:52.070Z,17.33
2018-06-14T18:09:21.470Z,17.27
2018-06-14T18:11:50.780Z,17.27
2018-06-14T18:14:19.942Z,17.23
2018-06-14T18:16:48.982Z,17.22
2018-06-14T18:19:18.099Z,17.20
2018-06-14T18:21:47.132Z,17.20
2018-06-14T18:24:16.185Z,17.24
2018-06-14T18:26:45.195Z,17.22
2018-06-14T18:29:14.215Z,17.16
2018-06-14T18:31:43.186Z,17.09
2018-06-14T18:34:12.979Z,17.01
2018-06-14T18:36:42.116Z,17.03
2018-06-14T18:39:11.984Z,16.96
2018-06-14T18:41:40.961Z,16.87
2018-06-14T18:44:10.032Z,16.69
2018-06-14T18:46:39.911Z,16.73
2018-06-14T18:49:08.999Z,16.75
2018-06-14T18:51:38.010Z,16.76
2018-06-14T18:54:07.114Z,16.74
2018-06-14T18:56:36.145Z,16.69
2018-06-14T18:59:08.773Z,16.64
2018-06-14T19:01:37.746Z,16.64
2018-06-14T19:04:06.867Z,16.57
2018-06-14T19:06:37.272Z,16.60
2018-06-14T19:09:08.909Z,16.66
2018-06-14T19:11:38.687Z,16.59
2018-06-14T19:14:08.232Z,16.57
2018-06-14T19:16:37.266Z,16.48
2018-06-14T19:19:06.334Z,16.40
2018-06-14T19:21:35.297Z,16.27
2018-06-14T19:24:04.265Z,16.30
2018-06-14T19:26:49.071Z,16.37
2018-06-14T19:29:18.084Z,16.28
2018-06-14T19:31:47.112Z,16.17
2018-06-14T19:34:16.157Z,16.06
2018-06-14T19:36:45.080Z,16.05
2018-06-14T19:39:14.064Z,16.04
2018-06-14T19:41:43.064Z,16.05
2018-06-14T19:44:12.138Z,16.11
2018-06-14T19:46:41.180Z,16.14
2018-06-14T19:49:10.181Z,16.02
2018-06-14T19:51:39.092Z,16.02
2018-06-14T19:54:08.146Z,15.96
2018-06-14T19:56:37.101Z,15.95
2018-06-14T19:59:12.096Z,15.96
2018-06-14T20:01:41.136Z,15.89
2018-06-14T20:04:10.148Z,15.92
2018-06-14T20:06:39.164Z,15.89
2018-06-14T20:09:09.052Z,15.85
2018-06-14T20:11:38.028Z,15.89
2018-06-14T20:14:07.058Z,15.86
2018-06-14T20:16:36.044Z,15.88
2018-06-14T20:19:05.141Z,15.87
2018-06-14T20:21:34.135Z,15.89
2018-06-14T20:24:03.095Z,15.89
2018-06-14T20:26:32.073Z,15.83
2018-06-14T20:29:01.139Z,15.80
2018-06-14T20:31:30.086Z,15.78
2018-06-14T20:33:59.033Z,15.81
2018-06-14T20:36:28.027Z,15.80
2018-06-14T20:41:47.028Z,15.73
2018-06-14T20:44:15.982Z,15.77
2018-06-14T20:46:45.007Z,15.80
2018-06-14T20:49:13.987Z,15.80
2018-06-14T20:51:43.031Z,15.78
2018-06-14T20:54:12.037Z,15.74
2018-06-14T20:56:41.034Z,15.67
2018-06-14T20:59:09.989Z,15.66
2018-06-14T21:01:38.941Z,15.66
2018-06-14T21:04:08.024Z,15.64
2018-06-14T21:06:37.071Z,15.61
2018-06-14T21:09:08.848Z,15.53
2018-06-14T21:11:38.103Z,15.50
2018-06-14T21:14:07.165Z,15.52
2018-06-14T21:16:36.757Z,15.52
2018-06-14T21:19:05.742Z,15.46
2018-06-14T21:21:34.701Z,15.35
2018-06-14T21:24:03.694Z,15.37
2018-06-14T21:26:32.772Z,15.36
2018-06-14T21:29:01.776Z,15.25
2018-06-14T21:31:30.759Z,15.21
2018-06-14T21:33:59.724Z,15.23
2018-06-14T21:36:28.691Z,15.17
2018-06-14T21:38:57.712Z,15.17
2018-06-14T21:41:26.694Z,15.21
2018-06-14T21:43:55.686Z,15.28
2018-06-14T21:46:25.581Z,15.34
2018-06-14T21:48:54.676Z,15.39
2018-06-14T21:51:23.702Z,15.40
2018-06-14T21:53:52.735Z,15.44
2018-06-14T21:56:21.736Z,15.42
2018-06-14T21:58:50.756Z,15.39
2018-06-14T22:01:19.714Z,15.50
2018-06-14T22:03:56.522Z,15.25
2018-06-14T22:06:25.858Z,15.16
2018-06-14T22:08:54.836Z,15.19
2018-06-14T22:11:23.853Z,15.20
2018-06-14T22:13:52.839Z,15.20
2018-06-14T22:16:21.902Z,15.29
2018-06-14T22:18:50.935Z,15.23
2018-06-14T22:21:19.908Z,15.24
2018-06-14T22:23:48.865Z,15.25
2018-06-14T22:26:17.866Z,15.08
2018-06-14T22:28:46.829Z,15.10
2018-06-14T22:31:15.806Z,15.09
2018-06-14T22:33:55.552Z,15.01
2018-06-14T22:36:24.644Z,14.88
2018-06-14T22:38:53.635Z,14.97
2018-06-14T22:41:22.600Z,15.06
2018-06-14T22:43:51.679Z,15.10
2018-06-14T22:46:20.692Z,15.02
2018-06-14T22:48:49.784Z,15.09
2018-06-14T22:51:21.032Z,15.10
2018-06-14T22:53:50.028Z,15.09
2018-06-14T22:56:19.052Z,15.02
2018-06-14T22:58:48.206Z,14.98
2018-06-14T23:02:06.863Z,15.04
2018-06-14T23:04:35.893Z,15.08
2018-06-14T23:07:04.871Z,15.10
2018-06-14T23:10:42.348Z,15.12
2018-06-14T23:13:12.594Z,15.20
2018-06-14T23:15:41.491Z,15.18
2018-06-14T23:18:10.457Z,15.17
2018-06-14T23:20:39.587Z,15.14
2018-06-14T23:23:08.930Z,15.12
2018-06-14T23:25:38.297Z,15.10
2018-06-14T23:28:07.371Z,15.20
2018-06-14T23:30:36.674Z,15.19
2018-06-14T23:33:05.670Z,15.22
2018-06-14T23:35:34.633Z,15.20
2018-06-14T23:38:03.643Z,15.25
2018-06-14T23:40:32.601Z,15.17
2018-06-14T23:43:02.197Z,15.19
2018-06-14T23:45:31.225Z,15.21
2018-06-14T23:48:00.207Z,15.26
2018-06-14T23:50:29.094Z,15.27
2018-06-14T23:52:58.042Z,15.31
2018-06-14T23:55:27.040Z,15.22
2018-06-14T23:57:56.001Z,15.26
